Aeroporto :
LOGIN :

Iscrizione | Disclaimer

   EN    FR    IT 

 










Sommario :    VFR   VFR Marginale   IFR   IFR Intensivo   IFR Molto Intensivo
Visibilità : 
Base nubi : 
>= 8 km
>= 3000ft
5 / 8 km
1000 / 3000 ft
1500m / 5 km
500 / 1000 ft
800 / 1500m
200 / 500 ft
< 800m
< 200 ft
Simboli :   Temporali  Nebbia  Neve Forte  Precipitazioni Forti  Vento > 20 kt
SIGMETs :   Varie  Temporali  Ghiacco  Turbolenza  Onda orograficha  Ceneri Vulcaniche






- Altitudine del aeroporto : 909 ft
- Codice IATA : KSF


EDVK - Kassel Calden

ULTIMO METAR :
  • 290720Z 29001KT 0800 R27/1100N -RA FG BKN002 05/05 Q1015

METARs OBSOLETI :
  • 290650Z 25001KT 0800 R27/0800N -RA FG OVC002 05/05 Q1015
  • 290620Z VRB01KT 0600 R27/0800D FG BKN002 05/05 Q1015
  • 290550Z AUTO VRB01KT 1100 0700 R09/1500D // BKN001/// 05/05 Q1015
  • 290520Z AUTO 00000KT 0900 0800 R09/1000N // BKN002/// 05/05 Q1014
  • 290450Z AUTO VRB01KT 0750 0600 R09/1000N // BKN002/// 05/05 Q1014

TAF TAF EDVK
Valido dal 29 a 06 ore il 29 a 15 ore UTC


290500Z 2906/2915 VRB03KT 3000 BR BKN008
TEMPO 2906/2909 0300 -RADZ FG BKN001
BECMG 2910/2913 31005KT
TEMPO 2913/2915 5000 BKN012



MetMap, La meteo Aeronautica in un colpo d'occhio ! - Copyright ORBIFLY Dicembre 2007 - Disclaimer

ORBIFLY MET'MAP TEAM :

Programmazione e sviluppo : Alexandra Zaïnal
Concezione : Baudouin d'Aumeries
Supporto tecnico e logistico : Manuel Goepfert
Aiuto : Marc-Olivier Méhu
Aiuto per la traduzione : Arnaldo La Scala




FONTI E CREDITI :

   NOAA